sensor_id;sensor_type;location;lat;lon;timestamp;pressure;altitude;pressure_sealevel;temperature;humidity
12077;BME280;12420;42.676;23.262;2023-05-12T00:01:55;94792.13;;;9.76;100.00
12077;BME280;12420;42.676;23.262;2023-05-12T00:04:22;94757.91;;;9.54;100.00
12077;BME280;12420;42.676;23.262;2023-05-12T00:06:48;94788.09;;;9.77;100.00
12077;BME280;12420;42.676;23.262;2023-05-12T00:09:15;94795.00;;;9.89;100.00
12077;BME280;12420;42.676;23.262;2023-05-12T00:11:42;94790.34;;;9.78;100.00
12077;BME280;12420;42.676;23.262;2023-05-12T00:14:08;94805.72;;;9.74;100.00
12077;BME280;12420;42.676;23.262;2023-05-12T00:16:35;94794.31;;;9.83;100.00
12077;BME280;12420;42.676;23.262;2023-05-12T00:19:03;94796.34;;;9.83;100.00
12077;BME280;12420;42.676;23.262;2023-05-12T00:21:30;94767.38;;;9.65;100.00
12077;BME280;12420;42.676;23.262;2023-05-12T00:23:56;94791.75;;;9.61;100.00
12077;BME280;12420;42.676;23.262;2023-05-12T00:26:23;94789.72;;;9.67;100.00
12077;BME280;12420;42.676;23.262;2023-05-12T00:28:51;94790.16;;;9.71;100.00
12077;BME280;12420;42.676;23.262;2023-05-12T00:31:19;94798.28;;;9.63;100.00
12077;BME280;12420;42.676;23.262;2023-05-12T00:33:46;94785.13;;;9.45;100.00
12077;BME280;12420;42.676;23.262;2023-05-12T00:36:15;94788.41;;;9.43;100.00
12077;BME280;12420;42.676;23.262;2023-05-12T00:38:42;94794.97;;;9.40;100.00
12077;BME280;12420;42.676;23.262;2023-05-12T00:41:12;94782.88;;;9.43;100.00
12077;BME280;12420;42.676;23.262;2023-05-12T00:43:38;94794.97;;;9.40;100.00
12077;BME280;12420;42.676;23.262;2023-05-12T00:46:05;94794.22;;;9.40;100.00
12077;BME280;12420;42.676;23.262;2023-05-12T00:48:32;94800.97;;;9.44;100.00
12077;BME280;12420;42.676;23.262;2023-05-12T00:51:01;94802.44;;;9.45;100.00
12077;BME280;12420;42.676;23.262;2023-05-12T00:53:29;94773.75;;;9.24;100.00
12077;BME280;12420;42.676;23.262;2023-05-12T00:55:56;94820.56;;;9.41;100.00
12077;BME280;12420;42.676;23.262;2023-05-12T00:58:23;94811.09;;;9.30;100.00
12077;BME280;12420;42.676;23.262;2023-05-12T01:00:50;94804.53;;;9.33;100.00
12077;BME280;12420;42.676;23.262;2023-05-12T01:03:17;94803.41;;;9.18;100.00
12077;BME280;12420;42.676;23.262;2023-05-12T01:05:48;94792.22;;;9.04;100.00
12077;BME280;12420;42.676;23.262;2023-05-12T01:08:16;94787.00;;;8.95;100.00
12077;BME280;12420;42.676;23.262;2023-05-12T01:10:45;94802.00;;;9.05;100.00
12077;BME280;12420;42.676;23.262;2023-05-12T01:13:12;94811.84;;;8.95;100.00
12077;BME280;12420;42.676;23.262;2023-05-12T01:15:42;94803.06;;;8.97;100.00
12077;BME280;12420;42.676;23.262;2023-05-12T01:18:10;94810.13;;;8.92;100.00
12077;BME280;12420;42.676;23.262;2023-05-12T01:20:39;94805.88;;;8.91;100.00
12077;BME280;12420;42.676;23.262;2023-05-12T01:23:07;94812.56;;;9.01;100.00
12077;BME280;12420;42.676;23.262;2023-05-12T01:25:36;94808.09;;;8.98;100.00
12077;BME280;12420;42.676;23.262;2023-05-12T01:28:06;94797.44;;;8.78;100.00
12077;BME280;12420;42.676;23.262;2023-05-12T01:30:33;94813.13;;;8.94;100.00
12077;BME280;12420;42.676;23.262;2023-05-12T01:33:00;94778.44;;;8.57;100.00
12077;BME280;12420;42.676;23.262;2023-05-12T01:35:27;94809.88;;;8.90;100.00
12077;BME280;12420;42.676;23.262;2023-05-12T01:37:54;94807.34;;;8.92;100.00
12077;BME280;12420;42.676;23.262;2023-05-12T01:40:21;94809.47;;;8.80;100.00
12077;BME280;12420;42.676;23.262;2023-05-12T01:42:48;94799.41;;;8.83;100.00
12077;BME280;12420;42.676;23.262;2023-05-12T01:45:16;94809.94;;;8.79;100.00
12077;BME280;12420;42.676;23.262;2023-05-12T01:47:43;94805.47;;;8.76;100.00
12077;BME280;12420;42.676;23.262;2023-05-12T01:50:10;94810.66;;;8.90;100.00
12077;BME280;12420;42.676;23.262;2023-05-12T01:52:37;94721.22;;;8.16;100.00
12077;BME280;12420;42.676;23.262;2023-05-12T01:55:06;94811.59;;;8.99;100.00
12077;BME280;12420;42.676;23.262;2023-05-12T01:57:33;94809.63;;;8.94;100.00
12077;BME280;12420;42.676;23.262;2023-05-12T02:00:00;94806.41;;;8.84;100.00
12077;BME280;12420;42.676;23.262;2023-05-12T02:02:28;94798.44;;;8.75;100.00
12077;BME280;12420;42.676;23.262;2023-05-12T02:04:55;94798.38;;;8.86;100.00
12077;BME280;12420;42.676;23.262;2023-05-12T02:07:22;94797.09;;;8.87;100.00
12077;BME280;12420;42.676;23.262;2023-05-12T02:09:49;94759.09;;;8.68;100.00
12077;BME280;12420;42.676;23.262;2023-05-12T02:12:16;94806.50;;;9.08;100.00
12077;BME280;12420;42.676;23.262;2023-05-12T02:14:43;94808.88;;;8.93;100.00
12077;BME280;12420;42.676;23.262;2023-05-12T02:17:09;94802.66;;;8.81;100.00
12077;BME280;12420;42.676;23.262;2023-05-12T02:19:37;94799.59;;;8.90;100.00
12077;BME280;12420;42.676;23.262;2023-05-12T02:22:04;94800.69;;;8.76;100.00
12077;BME280;12420;42.676;23.262;2023-05-12T02:24:31;94752.66;;;8.49;100.00
12077;BME280;12420;42.676;23.262;2023-05-12T02:26:58;94777.38;;;8.72;100.00
12077;BME280;12420;42.676;23.262;2023-05-12T02:29:24;94805.47;;;8.70;100.00
12077;BME280;12420;42.676;23.262;2023-05-12T02:31:51;94796.31;;;8.92;100.00
12077;BME280;12420;42.676;23.262;2023-05-12T02:34:18;94806.50;;;9.08;100.00
12077;BME280;12420;42.676;23.262;2023-05-12T02:36:46;94801.22;;;9.10;100.00
12077;BME280;12420;42.676;23.262;2023-05-12T02:39:12;94804.28;;;9.01;100.00
12077;BME280;12420;42.676;23.262;2023-05-12T02:41:39;94801.00;;;9.08;100.00
12077;BME280;12420;42.676;23.262;2023-05-12T02:44:06;94782.06;;;8.88;100.00
12077;BME280;12420;42.676;23.262;2023-05-12T02:46:32;94798.28;;;8.97;100.00
12077;BME280;12420;42.676;23.262;2023-05-12T02:48:59;94805.72;;;9.13;100.00
12077;BME280;12420;42.676;23.262;2023-05-12T02:51:26;94803.41;;;9.18;100.00
12077;BME280;12420;42.676;23.262;2023-05-12T02:53:54;94803.50;;;9.06;100.00
12077;BME280;12420;42.676;23.262;2023-05-12T02:56:21;94807.00;;;9.07;100.00
12077;BME280;12420;42.676;23.262;2023-05-12T02:58:47;94812.19;;;9.22;100.00
12077;BME280;12420;42.676;23.262;2023-05-12T03:01:14;94825.66;;;9.31;100.00
12077;BME280;12420;42.676;23.262;2023-05-12T03:03:41;94795.63;;;9.22;100.00
12077;BME280;12420;42.676;23.262;2023-05-12T03:06:08;94818.75;;;9.19;100.00
12077;BME280;12420;42.676;23.262;2023-05-12T03:08:34;94815.81;;;9.05;100.00
12077;BME280;12420;42.676;23.262;2023-05-12T03:11:03;94788.41;;;8.72;100.00
12077;BME280;12420;42.676;23.262;2023-05-12T03:13:29;94821.38;;;9.00;100.00
12077;BME280;12420;42.676;23.262;2023-05-12T03:15:56;94823.38;;;8.99;100.00
12077;BME280;12420;42.676;23.262;2023-05-12T03:18:25;94819.88;;;8.99;100.00
12077;BME280;12420;42.676;23.262;2023-05-12T03:20:52;94830.47;;;8.89;100.00
12077;BME280;12420;42.676;23.262;2023-05-12T03:23:19;94823.53;;;8.71;100.00
12077;BME280;12420;42.676;23.262;2023-05-12T03:25:45;94835.69;;;8.98;100.00
12077;BME280;12420;42.676;23.262;2023-05-12T03:28:13;94850.69;;;9.08;100.00
12077;BME280;12420;42.676;23.262;2023-05-12T03:30:40;94845.94;;;9.03;100.00
12077;BME280;12420;42.676;23.262;2023-05-12T03:33:07;94835.91;;;9.42;100.00
12077;BME280;12420;42.676;23.262;2023-05-12T03:35:34;94832.94;;;9.64;100.00
12077;BME280;12420;42.676;23.262;2023-05-12T03:38:00;94840.03;;;9.60;100.00
12077;BME280;12420;42.676;23.262;2023-05-12T03:40:27;94820.06;;;9.42;100.00
12077;BME280;12420;42.676;23.262;2023-05-12T03:42:54;94848.44;;;9.73;100.00
12077;BME280;12420;42.676;23.262;2023-05-12T03:45:22;94852.47;;;9.72;100.00
12077;BME280;12420;42.676;23.262;2023-05-12T03:47:48;94854.44;;;9.77;100.00
12077;BME280;12420;42.676;23.262;2023-05-12T03:50:16;94853.78;;;9.95;100.00
12077;BME280;12420;42.676;23.262;2023-05-12T03:52:43;94860.97;;;10.04;100.00
12077;BME280;12420;42.676;23.262;2023-05-12T03:55:10;94854.06;;;10.16;100.00
12077;BME280;12420;42.676;23.262;2023-05-12T03:57:36;94830.66;;;10.17;100.00
12077;BME280;12420;42.676;23.262;2023-05-12T04:00:04;94811.44;;;10.25;100.00
12077;BME280;12420;42.676;23.262;2023-05-12T04:02:32;94856.59;;;10.63;100.00
12077;BME280;12420;42.676;23.262;2023-05-12T04:04:59;94868.03;;;10.73;100.00
12077;BME280;12420;42.676;23.262;2023-05-12T04:07:25;94831.06;;;10.52;100.00
12077;BME280;12420;42.676;23.262;2023-05-12T04:09:52;94836.25;;;10.61;100.00
12077;BME280;12420;42.676;23.262;2023-05-12T04:12:19;94873.28;;;10.96;100.00
12077;BME280;12420;42.676;23.262;2023-05-12T04:14:45;94864.63;;;11.05;100.00
12077;BME280;12420;42.676;23.262;2023-05-12T04:17:12;94873.75;;;11.00;100.00
12077;BME280;12420;42.676;23.262;2023-05-12T04:19:40;94869.41;;;11.04;100.00
12077;BME280;12420;42.676;23.262;2023-05-12T04:22:11;94875.16;;;10.88;100.00
12077;BME280;12420;42.676;23.262;2023-05-12T04:24:41;94869.03;;;10.95;100.00
12077;BME280;12420;42.676;23.262;2023-05-12T04:27:08;94879.19;;;11.05;100.00
12077;BME280;12420;42.676;23.262;2023-05-12T04:29:35;94848.28;;;10.82;100.00
12077;BME280;12420;42.676;23.262;2023-05-12T04:32:03;94872.91;;;10.67;100.00
12077;BME280;12420;42.676;23.262;2023-05-12T04:34:30;94872.97;;;10.80;100.00
12077;BME280;12420;42.676;23.262;2023-05-12T04:36:58;94869.97;;;10.78;100.00
12077;BME280;12420;42.676;23.262;2023-05-12T04:39:24;94869.34;;;10.48;100.00
12077;BME280;12420;42.676;23.262;2023-05-12T04:41:51;94872.72;;;10.59;100.00
12077;BME280;12420;42.676;23.262;2023-05-12T04:44:18;94865.88;;;10.17;100.00
12077;BME280;12420;42.676;23.262;2023-05-12T04:46:46;94861.47;;;10.27;100.00
12077;BME280;12420;42.676;23.262;2023-05-12T04:49:14;94828.41;;;9.91;100.00
12077;BME280;12420;42.676;23.262;2023-05-12T04:51:40;94859.97;;;9.77;100.00
12077;BME280;12420;42.676;23.262;2023-05-12T04:54:10;94846.09;;;9.52;100.00
12077;BME280;12420;42.676;23.262;2023-05-12T04:56:37;94867.22;;;9.80;100.00
12077;BME280;12420;42.676;23.262;2023-05-12T04:59:04;94868.47;;;9.79;100.00
12077;BME280;12420;42.676;23.262;2023-05-12T05:01:31;94849.91;;;9.44;100.00
12077;BME280;12420;42.676;23.262;2023-05-12T05:03:57;94866.06;;;9.70;100.00
12077;BME280;12420;42.676;23.262;2023-05-12T05:06:24;94876.81;;;9.73;100.00
12077;BME280;12420;42.676;23.262;2023-05-12T05:08:51;94865.91;;;9.56;100.00
12077;BME280;12420;42.676;23.262;2023-05-12T05:11:21;94868.59;;;9.68;100.00
12077;BME280;12420;42.676;23.262;2023-05-12T05:13:48;94854.47;;;9.41;100.00
12077;BME280;12420;42.676;23.262;2023-05-12T05:16:15;94869.94;;;9.55;100.00
12077;BME280;12420;42.676;23.262;2023-05-12T05:18:41;94869.88;;;9.61;100.00
12077;BME280;12420;42.676;23.262;2023-05-12T05:21:10;94838.28;;;9.21;100.00
12077;BME280;12420;42.676;23.262;2023-05-12T05:23:37;94856.88;;;9.56;100.00
12077;BME280;12420;42.676;23.262;2023-05-12T05:26:04;94876.63;;;9.66;100.00
12077;BME280;12420;42.676;23.262;2023-05-12T05:28:32;94870.25;;;9.46;100.00
12077;BME280;12420;42.676;23.262;2023-05-12T05:30:58;94875.31;;;9.42;100.00
12077;BME280;12420;42.676;23.262;2023-05-12T05:33:25;94879.16;;;9.64;100.00
12077;BME280;12420;42.676;23.262;2023-05-12T05:35:52;94867.59;;;9.65;100.00
12077;BME280;12420;42.676;23.262;2023-05-12T05:38:19;94883.25;;;9.51;100.00
12077;BME280;12420;42.676;23.262;2023-05-12T05:40:45;94886.91;;;9.35;100.00
12077;BME280;12420;42.676;23.262;2023-05-12T05:43:12;94887.84;;;9.43;100.00
12077;BME280;12420;42.676;23.262;2023-05-12T05:45:40;94868.59;;;9.32;100.00
12077;BME280;12420;42.676;23.262;2023-05-12T05:48:07;94828.06;;;9.10;100.00
12077;BME280;12420;42.676;23.262;2023-05-12T05:50:37;94854.50;;;9.00;100.00
12077;BME280;12420;42.676;23.262;2023-05-12T05:53:04;94874.63;;;9.30;100.00
12077;BME280;12420;42.676;23.262;2023-05-12T05:55:31;94855.44;;;9.13;100.00
12077;BME280;12420;42.676;23.262;2023-05-12T05:58:04;94884.66;;;9.33;100.00
12077;BME280;12420;42.676;23.262;2023-05-12T06:00:31;94879.06;;;9.45;100.00
12077;BME280;12420;42.676;23.262;2023-05-12T06:02:59;94887.06;;;9.48;100.00
12077;BME280;12420;42.676;23.262;2023-05-12T06:05:26;94842.88;;;9.12;100.00
12077;BME280;12420;42.676;23.262;2023-05-12T06:07:53;94884.31;;;9.48;100.00
12077;BME280;12420;42.676;23.262;2023-05-12T06:10:20;94888.53;;;9.55;100.00
12077;BME280;12420;42.676;23.262;2023-05-12T06:12:47;94891.34;;;9.49;100.00
12077;BME280;12420;42.676;23.262;2023-05-12T06:15:14;94892.63;;;9.43;100.00
12077;BME280;12420;42.676;23.262;2023-05-12T06:17:41;94897.69;;;9.39;100.00
12077;BME280;12420;42.676;23.262;2023-05-12T06:20:10;94887.31;;;9.50;100.00
12077;BME280;12420;42.676;23.262;2023-05-12T06:22:38;94899.78;;;9.63;100.00
12077;BME280;12420;42.676;23.262;2023-05-12T06:25:07;94868.75;;;9.45;100.00
12077;BME280;12420;42.676;23.262;2023-05-12T06:27:34;94896.78;;;9.61;100.00
12077;BME280;12420;42.676;23.262;2023-05-12T06:30:00;94879.00;;;9.50;100.00
12077;BME280;12420;42.676;23.262;2023-05-12T06:32:28;94869.44;;;9.16;100.00
12077;BME280;12420;42.676;23.262;2023-05-12T06:34:55;94901.31;;;9.58;100.00
12077;BME280;12420;42.676;23.262;2023-05-12T06:37:23;94878.78;;;9.48;100.00
12077;BME280;12420;42.676;23.262;2023-05-12T06:39:50;94917.31;;;9.71;100.00
12077;BME280;12420;42.676;23.262;2023-05-12T06:42:16;94917.31;;;9.71;100.00
12077;BME280;12420;42.676;23.262;2023-05-12T06:44:43;94914.88;;;9.62;100.00
12077;BME280;12420;42.676;23.262;2023-05-12T06:47:10;94910.75;;;9.74;100.00
12077;BME280;12420;42.676;23.262;2023-05-12T06:49:37;94917.53;;;9.73;100.00
12077;BME280;12420;42.676;23.262;2023-05-12T06:52:04;94913.25;;;9.42;100.00
12077;BME280;12420;42.676;23.262;2023-05-12T06:54:33;94912.63;;;9.60;100.00
12077;BME280;12420;42.676;23.262;2023-05-12T06:56:59;94913.09;;;9.64;100.00
12077;BME280;12420;42.676;23.262;2023-05-12T06:59:26;94898.84;;;9.54;100.00
12077;BME280;12420;42.676;23.262;2023-05-12T07:01:53;94911.88;;;9.60;100.00
12077;BME280;12420;42.676;23.262;2023-05-12T07:04:19;94910.63;;;9.55;100.00
12077;BME280;12420;42.676;23.262;2023-05-12T07:06:46;94909.16;;;9.48;100.00
12077;BME280;12420;42.676;23.262;2023-05-12T07:09:14;94908.19;;;9.46;100.00
12077;BME280;12420;42.676;23.262;2023-05-12T07:11:44;94915.28;;;9.71;100.00
12077;BME280;12420;42.676;23.262;2023-05-12T07:14:11;94889.81;;;9.48;100.00
12077;BME280;12420;42.676;23.262;2023-05-12T07:16:37;94889.56;;;9.52;100.00
12077;BME280;12420;42.676;23.262;2023-05-12T07:19:04;94915.06;;;9.69;100.00
12077;BME280;12420;42.676;23.262;2023-05-12T07:21:33;94905.31;;;9.63;100.00
12077;BME280;12420;42.676;23.262;2023-05-12T07:23:59;94924.34;;;9.72;100.00
12077;BME280;12420;42.676;23.262;2023-05-12T07:26:26;94905.44;;;9.76;100.00
12077;BME280;12420;42.676;23.262;2023-05-12T07:28:55;94922.03;;;9.76;100.00
12077;BME280;12420;42.676;23.262;2023-05-12T07:31:25;94884.94;;;9.66;100.00
12077;BME280;12420;42.676;23.262;2023-05-12T07:33:51;94912.50;;;9.77;100.00
12077;BME280;12420;42.676;23.262;2023-05-12T07:36:19;94924.63;;;9.98;100.00
12077;BME280;12420;42.676;23.262;2023-05-12T07:38:48;94928.66;;;9.97;100.00
12077;BME280;12420;42.676;23.262;2023-05-12T07:41:15;94918.59;;;10.00;100.00
12077;BME280;12420;42.676;23.262;2023-05-12T07:43:45;94928.38;;;10.01;100.00
12077;BME280;12420;42.676;23.262;2023-05-12T07:46:13;94922.09;;;10.00;100.00
12077;BME280;12420;42.676;23.262;2023-05-12T07:48:41;94932.63;;;10.02;100.00
12077;BME280;12420;42.676;23.262;2023-05-12T07:51:07;94919.88;;;9.93;100.00
12077;BME280;12420;42.676;23.262;2023-05-12T07:53:34;94888.41;;;9.36;100.00
12077;BME280;12420;42.676;23.262;2023-05-12T07:56:02;94919.38;;;9.95;100.00
12077;BME280;12420;42.676;23.262;2023-05-12T07:58:29;94918.72;;;10.13;100.00
12077;BME280;12420;42.676;23.262;2023-05-12T08:00:56;94884.47;;;10.16;100.00
12077;BME280;12420;42.676;23.262;2023-05-12T08:03:34;94916.34;;;10.53;100.00
12077;BME280;12420;42.676;23.262;2023-05-12T08:06:00;94913.50;;;10.59;100.00
12077;BME280;12420;42.676;23.262;2023-05-12T08:08:28;94924.75;;;10.67;100.00
12077;BME280;12420;42.676;23.262;2023-05-12T08:10:56;94914.16;;;10.90;100.00
12077;BME280;12420;42.676;23.262;2023-05-12T08:13:22;94915.41;;;10.89;100.00
12077;BME280;12420;42.676;23.262;2023-05-12T08:15:50;94917.16;;;10.92;100.00
12077;BME280;12420;42.676;23.262;2023-05-12T08:18:17;94910.69;;;10.83;100.00
12077;BME280;12420;42.676;23.262;2023-05-12T08:20:47;94912.31;;;10.73;100.00
12077;BME280;12420;42.676;23.262;2023-05-12T08:23:22;94930.31;;;10.85;100.00
12077;BME280;12420;42.676;23.262;2023-05-12T08:25:50;94882.00;;;10.62;100.00
12077;BME280;12420;42.676;23.262;2023-05-12T08:28:19;94931.44;;;10.96;100.00
12077;BME280;12420;42.676;23.262;2023-05-12T08:30:47;94928.09;;;11.03;100.00
12077;BME280;12420;42.676;23.262;2023-05-12T08:33:14;94935.25;;;11.12;100.00
12077;BME280;12420;42.676;23.262;2023-05-12T08:35:41;94929.97;;;11.33;100.00
12077;BME280;12420;42.676;23.262;2023-05-12T08:38:09;94929.22;;;11.32;100.00
12077;BME280;12420;42.676;23.262;2023-05-12T08:40:52;94902.78;;;11.12;100.00
12077;BME280;12420;42.676;23.262;2023-05-12T08:43:24;94925.84;;;11.58;100.00
12077;BME280;12420;42.676;23.262;2023-05-12T08:45:51;94920.66;;;11.68;100.00
12077;BME280;12420;42.676;23.262;2023-05-12T08:48:21;94906.84;;;11.62;100.00
12077;BME280;12420;42.676;23.262;2023-05-12T08:50:52;94937.50;;;11.89;100.00
12077;BME280;12420;42.676;23.262;2023-05-12T08:53:21;94932.69;;;11.89;100.00
12077;BME280;12420;42.676;23.262;2023-05-12T08:55:49;94929.09;;;11.76;100.00
12077;BME280;12420;42.676;23.262;2023-05-12T08:58:17;94928.59;;;11.58;100.00
12077;BME280;12420;42.676;23.262;2023-05-12T09:00:44;94932.53;;;11.82;100.00
12077;BME280;12420;42.676;23.262;2023-05-12T09:03:15;94905.69;;;11.90;100.00
12077;BME280;12420;42.676;23.262;2023-05-12T09:05:42;94917.50;;;12.09;100.00
12077;BME280;12420;42.676;23.262;2023-05-12T09:08:26;94924.84;;;12.07;100.00
12077;BME280;12420;42.676;23.262;2023-05-12T09:10:59;94910.00;;;12.04;100.00
12077;BME280;12420;42.676;23.262;2023-05-12T09:13:31;94922.84;;;12.21;100.00
12077;BME280;12420;42.676;23.262;2023-05-12T09:16:03;94922.44;;;12.16;100.00
12077;BME280;12420;42.676;23.262;2023-05-12T09:18:44;94913.03;;;12.20;100.00
12077;BME280;12420;42.676;23.262;2023-05-12T09:21:13;94914.13;;;12.30;100.00
12077;BME280;12420;42.676;23.262;2023-05-12T09:23:53;94907.28;;;12.31;100.00
12077;BME280;12420;42.676;23.262;2023-05-12T09:26:20;94907.72;;;12.35;100.00
12077;BME280;12420;42.676;23.262;2023-05-12T09:28:48;94886.69;;;12.26;100.00
12077;BME280;12420;42.676;23.262;2023-05-12T09:31:18;94907.09;;;12.55;100.00
12077;BME280;12420;42.676;23.262;2023-05-12T09:33:45;94906.22;;;12.34;100.00
12077;BME280;12420;42.676;23.262;2023-05-12T09:36:15;94913.72;;;12.52;100.00
12077;BME280;12420;42.676;23.262;2023-05-12T09:38:42;94904.53;;;12.57;100.00
12077;BME280;12420;42.676;23.262;2023-05-12T09:41:11;94910.72;;;12.77;100.00
12077;BME280;12420;42.676;23.262;2023-05-12T09:43:43;94911.34;;;12.96;100.00
12077;BME280;12420;42.676;23.262;2023-05-12T09:46:10;94920.53;;;13.18;100.00
12077;BME280;12420;42.676;23.262;2023-05-12T09:48:37;94916.13;;;13.09;100.00
12077;BME280;12420;42.676;23.262;2023-05-12T09:51:04;94920.63;;;12.99;100.00
12077;BME280;12420;42.676;23.262;2023-05-12T09:53:40;94916.03;;;13.01;100.00
12077;BME280;12420;42.676;23.262;2023-05-12T09:56:10;94918.78;;;13.15;100.00
12077;BME280;12420;42.676;23.262;2023-05-12T09:58:40;94909.53;;;12.99;100.00
12077;BME280;12420;42.676;23.262;2023-05-12T10:01:07;94900.44;;;12.98;100.00
12077;BME280;12420;42.676;23.262;2023-05-12T10:03:35;94896.63;;;12.88;100.00
12077;BME280;12420;42.676;23.262;2023-05-12T10:06:05;94891.59;;;12.87;100.00
12077;BME280;12420;42.676;23.262;2023-05-12T10:08:35;94893.59;;;12.99;100.00
12077;BME280;12420;42.676;23.262;2023-05-12T10:11:04;94909.63;;;13.07;100.00
12077;BME280;12420;42.676;23.262;2023-05-12T10:13:32;94909.88;;;12.95;100.00
12077;BME280;12420;42.676;23.262;2023-05-12T10:16:04;94905.44;;;13.00;100.00
12077;BME280;12420;42.676;23.262;2023-05-12T10:18:32;94910.25;;;13.26;100.00
12077;BME280;12420;42.676;23.262;2023-05-12T10:20:59;94911.59;;;13.46;100.00
12077;BME280;12420;42.676;23.262;2023-05-12T10:23:27;94883.09;;;13.32;99.56
12077;BME280;12420;42.676;23.262;2023-05-12T10:25:54;94899.88;;;13.61;97.95
12077;BME280;12420;42.676;23.262;2023-05-12T10:28:26;94908.59;;;13.78;99.25
12077;BME280;12420;42.676;23.262;2023-05-12T10:30:55;94908.44;;;13.84;93.65
12077;BME280;12420;42.676;23.262;2023-05-12T10:33:22;94904.19;;;13.83;95.46
12077;BME280;12420;42.676;23.262;2023-05-12T10:35:51;94903.91;;;13.73;92.89
12077;BME280;12420;42.676;23.262;2023-05-12T10:38:19;94899.06;;;13.74;91.92
12077;BME280;12420;42.676;23.262;2023-05-12T10:40:53;94896.91;;;14.01;93.50
12077;BME280;12420;42.676;23.262;2023-05-12T10:43:22;94906.22;;;14.03;93.08
12077;BME280;12420;42.676;23.262;2023-05-12T10:46:13;94892.88;;;14.02;91.23
12077;BME280;12420;42.676;23.262;2023-05-12T10:48:50;94902.91;;;14.05;94.38
12077;BME280;12420;42.676;23.262;2023-05-12T10:51:21;94894.31;;;14.24;92.99
12077;BME280;12420;42.676;23.262;2023-05-12T10:53:55;94900.91;;;14.34;93.29
12077;BME280;12420;42.676;23.262;2023-05-12T10:56:25;94908.31;;;14.31;92.98
12077;BME280;12420;42.676;23.262;2023-05-12T10:59:06;94879.44;;;14.21;90.48
12077;BME280;12420;42.676;23.262;2023-05-12T11:01:34;94893.09;;;14.32;90.64
12077;BME280;12420;42.676;23.262;2023-05-12T11:04:11;94891.03;;;14.54;93.31
12077;BME280;12420;42.676;23.262;2023-05-12T11:06:38;94896.28;;;14.65;93.19
12077;BME280;12420;42.676;23.262;2023-05-12T11:09:08;94898.91;;;14.63;88.43
12077;BME280;12420;42.676;23.262;2023-05-12T11:11:39;94913.16;;;14.60;92.35
12077;BME280;12420;42.676;23.262;2023-05-12T11:14:07;94902.03;;;14.60;88.40
12077;BME280;12420;42.676;23.262;2023-05-12T11:16:41;94904.91;;;14.25;90.03
12077;BME280;12420;42.676;23.262;2023-05-12T11:19:08;94877.28;;;14.06;88.63
12077;BME280;12420;42.676;23.262;2023-05-12T11:21:36;94901.56;;;14.48;91.07
12077;BME280;12420;42.676;23.262;2023-05-12T11:24:03;94903.72;;;14.42;87.64
12077;BME280;12420;42.676;23.262;2023-05-12T11:26:30;94902.25;;;14.41;93.27
12077;BME280;12420;42.676;23.262;2023-05-12T11:28:57;94901.63;;;14.34;89.55
12077;BME280;12420;42.676;23.262;2023-05-12T11:31:24;94905.72;;;14.33;89.20
12077;BME280;12420;42.676;23.262;2023-05-12T11:34:02;94879.91;;;14.04;90.38
12077;BME280;12420;42.676;23.262;2023-05-12T11:36:35;94892.78;;;13.94;91.75
12077;BME280;12420;42.676;23.262;2023-05-12T11:39:02;94915.09;;;14.23;91.40
12077;BME280;12420;42.676;23.262;2023-05-12T11:41:30;94873.22;;;14.07;92.43
12077;BME280;12420;42.676;23.262;2023-05-12T11:43:57;94907.06;;;14.40;90.20
12077;BME280;12420;42.676;23.262;2023-05-12T11:46:26;94905.75;;;14.62;89.95
12077;BME280;12420;42.676;23.262;2023-05-12T11:48:56;94907.75;;;14.54;89.04
12077;BME280;12420;42.676;23.262;2023-05-12T11:51:25;94900.56;;;14.38;89.78
12077;BME280;12420;42.676;23.262;2023-05-12T11:53:52;94900.06;;;14.47;88.96
12077;BME280;12420;42.676;23.262;2023-05-12T11:56:22;94896.81;;;14.56;89.79
12077;BME280;12420;42.676;23.262;2023-05-12T11:58:53;94855.50;;;14.47;88.53
12077;BME280;12420;42.676;23.262;2023-05-12T12:01:21;94891.66;;;14.68;88.57
12077;BME280;12420;42.676;23.262;2023-05-12T12:03:50;94867.44;;;14.55;85.10
12077;BME280;12420;42.676;23.262;2023-05-12T12:06:17;94874.19;;;14.39;86.32
12077;BME280;12420;42.676;23.262;2023-05-12T12:08:54;94887.75;;;14.63;85.83
12077;BME280;12420;42.676;23.262;2023-05-12T12:11:22;94900.06;;;14.75;87.89
12077;BME280;12420;42.676;23.262;2023-05-12T12:13:53;94907.69;;;14.75;87.98
12077;BME280;12420;42.676;23.262;2023-05-12T12:16:23;94900.03;;;14.68;88.78
12077;BME280;12420;42.676;23.262;2023-05-12T12:18:51;94888.13;;;14.67;87.73
12077;BME280;12420;42.676;23.262;2023-05-12T12:21:18;94908.72;;;14.93;88.63
12077;BME280;12420;42.676;23.262;2023-05-12T12:23:45;94870.22;;;14.55;86.48
12077;BME280;12420;42.676;23.262;2023-05-12T12:26:13;94870.22;;;14.55;89.21
12077;BME280;12420;42.676;23.262;2023-05-12T12:28:41;94894.16;;;14.79;85.76
12077;BME280;12420;42.676;23.262;2023-05-12T12:31:07;94907.16;;;14.76;88.16
12077;BME280;12420;42.676;23.262;2023-05-12T12:33:34;94876.25;;;14.38;86.36
12077;BME280;12420;42.676;23.262;2023-05-12T12:36:01;94895.38;;;14.42;84.19
12077;BME280;12420;42.676;23.262;2023-05-12T12:38:28;94902.78;;;14.39;87.50
12077;BME280;12420;42.676;23.262;2023-05-12T12:40:56;94901.78;;;14.29;88.32
12077;BME280;12420;42.676;23.262;2023-05-12T12:43:24;94868.03;;;14.32;90.31
12077;BME280;12420;42.676;23.262;2023-05-12T12:45:51;94898.13;;;14.63;92.04
12077;BME280;12420;42.676;23.262;2023-05-12T12:48:18;94888.03;;;14.52;86.32
12077;BME280;12420;42.676;23.262;2023-05-12T12:50:45;94825.22;;;14.15;85.43
12077;BME280;12420;42.676;23.262;2023-05-12T12:53:12;94894.97;;;14.59;83.58